createdAt,value
2018-02-15T00:00:48.651Z,82.96
2018-02-15T00:01:54.780Z,82.94
2018-02-15T00:03:00.657Z,82.61
2018-02-15T00:04:06.567Z,82.76
2018-02-15T00:05:12.743Z,82.39
2018-02-15T00:06:18.912Z,82.78
2018-02-15T00:07:25.125Z,82.64
2018-02-15T00:08:31.337Z,82.82
2018-02-15T00:09:37.560Z,83.16
2018-02-15T00:10:43.681Z,83.15
2018-02-15T00:11:57.886Z,83.21
2018-02-15T00:13:03.981Z,83.26
2018-02-15T00:14:10.158Z,83.69
2018-02-15T00:15:16.372Z,83.63
2018-02-15T00:16:22.627Z,83.43
2018-02-15T00:17:29.037Z,83.29
2018-02-15T00:18:35.267Z,83.66
2018-02-15T00:19:41.493Z,83.62
2018-02-15T00:20:47.629Z,83.22
2018-02-15T00:21:53.515Z,83.34
2018-02-15T00:22:59.666Z,83.37
2018-02-15T00:24:05.831Z,83.41
2018-02-15T00:25:12.091Z,83.71
2018-02-15T00:26:18.375Z,83.84
2018-02-15T00:27:24.811Z,84.30
2018-02-15T00:28:30.999Z,84.32
2018-02-15T00:29:37.225Z,84.09
2018-02-15T00:30:48.249Z,84.16
2018-02-15T00:31:54.432Z,84.10
2018-02-15T00:33:00.323Z,84.13
2018-02-15T00:34:06.145Z,84.54
2018-02-15T00:35:12.342Z,84.30
2018-02-15T00:36:18.467Z,84.35
2018-02-15T00:37:24.650Z,84.43
2018-02-15T00:38:30.851Z,84.42
2018-02-15T00:39:36.838Z,84.20
2018-02-15T00:40:43.050Z,84.26
2018-02-15T00:41:49.246Z,83.91
2018-02-15T00:42:55.134Z,84.05
2018-02-15T00:44:01.256Z,84.14
2018-02-15T00:45:07.500Z,84.24
2018-02-15T00:46:13.671Z,84.22
2018-02-15T00:47:19.884Z,84.05
2018-02-15T00:48:26.074Z,84.03
2018-02-15T00:49:32.270Z,84.17
2018-02-15T00:50:38.443Z,83.84
2018-02-15T00:51:44.603Z,84.34
2018-02-15T00:52:50.803Z,84.26
2018-02-15T00:53:56.652Z,84.31
2018-02-15T00:55:02.945Z,84.27
2018-02-15T00:56:09.283Z,84.21
2018-02-15T00:57:15.458Z,84.31
2018-02-15T00:58:21.695Z,84.94
2018-02-15T00:59:27.832Z,85.61
2018-02-15T01:00:37.011Z,85.91
2018-02-15T01:01:43.220Z,85.65
2018-02-15T01:02:49.368Z,84.65
2018-02-15T01:03:55.502Z,84.37
2018-02-15T01:05:01.407Z,84.80
2018-02-15T01:06:07.644Z,84.27
2018-02-15T01:07:16.446Z,83.94
2018-02-15T01:08:22.700Z,84.03
2018-02-15T01:09:28.903Z,84.28
2018-02-15T01:10:35.147Z,85.42
2018-02-15T01:11:40.990Z,85.29
2018-02-15T01:12:47.144Z,85.51
2018-02-15T01:13:53.313Z,85.82
2018-02-15T01:14:59.438Z,85.78
2018-02-15T01:16:10.099Z,85.59
2018-02-15T01:17:16.059Z,85.14
2018-02-15T01:18:22.261Z,84.41
2018-02-15T01:19:28.472Z,84.52
2018-02-15T01:20:34.656Z,84.78
2018-02-15T01:21:40.899Z,84.28
2018-02-15T01:22:47.128Z,84.61
2018-02-15T01:23:53.335Z,84.54
2018-02-15T01:24:59.471Z,84.26
2018-02-15T01:26:06.086Z,84.07
2018-02-15T01:27:13.506Z,84.35
2018-02-15T01:28:19.684Z,84.59
2018-02-15T01:29:25.695Z,84.57
2018-02-15T01:30:31.818Z,84.43
2018-02-15T01:31:38.000Z,84.51
2018-02-15T01:32:44.190Z,84.71
2018-02-15T01:33:50.330Z,84.90
2018-02-15T01:34:56.205Z,84.74
2018-02-15T01:36:02.443Z,85.31
2018-02-15T01:37:09.557Z,85.34
2018-02-15T01:38:15.714Z,85.45
2018-02-15T01:39:21.850Z,85.52
2018-02-15T01:40:28.162Z,85.26
2018-02-15T01:41:34.447Z,85.28
2018-02-15T01:42:40.659Z,85.37
2018-02-15T01:43:46.873Z,85.54
2018-02-15T01:44:53.040Z,86.38
2018-02-15T01:45:59.278Z,86.16
2018-02-15T01:47:05.465Z,85.83
2018-02-15T01:48:11.680Z,85.88
2018-02-15T01:49:17.868Z,85.77
2018-02-15T01:50:24.095Z,85.65
2018-02-15T01:51:30.358Z,85.90
2018-02-15T01:52:36.744Z,86.02
2018-02-15T01:53:42.878Z,86.24
2018-02-15T01:54:49.092Z,85.86
2018-02-15T01:55:56.083Z,85.70
2018-02-15T01:57:02.262Z,85.32
2018-02-15T01:58:08.405Z,85.15
2018-02-15T01:59:14.602Z,84.74
2018-02-15T02:00:20.787Z,85.30
2018-02-15T02:01:25.694Z,85.15
2018-02-15T02:02:31.917Z,85.25
2018-02-15T02:03:38.090Z,85.32
2018-02-15T02:04:44.281Z,85.20
2018-02-15T02:05:50.456Z,84.80
2018-02-15T02:06:56.623Z,85.47
2018-02-15T02:08:02.791Z,85.20
2018-02-15T02:09:08.992Z,85.45
2018-02-15T02:10:16.082Z,85.78
2018-02-15T02:11:22.255Z,85.74
2018-02-15T02:12:28.403Z,85.39
2018-02-15T02:13:34.548Z,85.46
2018-02-15T02:14:40.712Z,85.46
2018-02-15T02:15:46.897Z,85.40
2018-02-15T02:16:53.108Z,85.56
2018-02-15T02:17:59.272Z,85.73
2018-02-15T02:19:05.463Z,86.11
2018-02-15T02:20:11.659Z,85.60
2018-02-15T02:21:17.848Z,85.64
2018-02-15T02:22:23.796Z,85.59
2018-02-15T02:23:29.997Z,85.60
2018-02-15T02:24:36.158Z,85.48
2018-02-15T02:25:42.392Z,85.49
2018-02-15T02:26:48.557Z,85.06
2018-02-15T02:27:54.778Z,85.48
2018-02-15T02:29:00.917Z,85.31
2018-02-15T02:30:07.165Z,85.29
2018-02-15T02:31:13.379Z,85.80
2018-02-15T02:32:19.699Z,85.89
2018-02-15T02:33:25.869Z,86.26
2018-02-15T02:34:32.062Z,85.96
2018-02-15T02:35:38.285Z,85.81
2018-02-15T02:36:44.490Z,85.96
2018-02-15T02:37:50.749Z,85.92
2018-02-15T02:38:56.900Z,85.88
2018-02-15T02:40:03.092Z,85.58
2018-02-15T02:41:09.343Z,85.78
2018-02-15T02:42:15.500Z,86.26
2018-02-15T02:43:22.380Z,86.30
2018-02-15T02:44:28.535Z,86.15
2018-02-15T02:45:34.761Z,86.09
2018-02-15T02:46:40.951Z,86.08
2018-02-15T02:47:47.122Z,85.97
2018-02-15T02:48:53.640Z,85.86
2018-02-15T02:49:59.787Z,85.89
2018-02-15T02:51:05.958Z,85.52
2018-02-15T02:52:12.109Z,85.65
2018-02-15T02:53:18.284Z,85.82
2018-02-15T02:54:24.471Z,86.06
2018-02-15T02:55:30.633Z,86.35
2018-02-15T02:56:36.887Z,86.42
2018-02-15T02:57:43.049Z,86.08
2018-02-15T02:58:49.254Z,86.05
2018-02-15T02:59:55.476Z,85.99
2018-02-15T03:01:02.656Z,85.99
2018-02-15T03:02:08.865Z,86.21
2018-02-15T03:03:15.106Z,86.19
2018-02-15T03:04:21.269Z,86.02
2018-02-15T03:05:27.383Z,86.21
2018-02-15T03:06:33.554Z,85.92
2018-02-15T03:07:39.792Z,85.70
2018-02-15T03:08:45.353Z,85.22
2018-02-15T03:09:51.581Z,85.01
2018-02-15T03:10:58.245Z,84.98
2018-02-15T03:12:04.432Z,85.25
2018-02-15T03:13:10.624Z,84.94
2018-02-15T03:14:16.810Z,85.61
2018-02-15T03:15:23.004Z,85.49
2018-02-15T03:16:29.177Z,85.00
2018-02-15T03:17:35.366Z,85.09
2018-02-15T03:18:41.734Z,84.98
2018-02-15T03:19:47.900Z,85.35
2018-02-15T03:20:54.046Z,85.29
2018-02-15T03:22:00.239Z,85.35
2018-02-15T03:23:06.474Z,84.79
2018-02-15T03:24:12.642Z,84.92
2018-02-15T03:25:21.894Z,85.04
2018-02-15T03:26:28.101Z,85.11
2018-02-15T03:27:39.015Z,85.08
2018-02-15T03:28:45.177Z,85.25
2018-02-15T03:29:51.366Z,85.38
2018-02-15T03:30:57.543Z,85.09
2018-02-15T03:32:03.727Z,85.46
2018-02-15T03:33:09.969Z,85.04
2018-02-15T03:34:16.141Z,85.03
2018-02-15T03:35:22.322Z,85.04
2018-02-15T03:36:28.529Z,84.98
2018-02-15T03:37:34.769Z,85.34
2018-02-15T03:38:41.031Z,84.83
2018-02-15T03:39:47.296Z,84.60
2018-02-15T03:40:53.221Z,84.33
2018-02-15T03:41:59.395Z,84.36
2018-02-15T03:43:05.634Z,84.38
2018-02-15T03:44:11.941Z,84.48
2018-02-15T03:45:18.108Z,84.57
2018-02-15T03:46:24.321Z,85.24
2018-02-15T03:47:30.454Z,85.31
2018-02-15T03:48:36.739Z,85.71
2018-02-15T03:49:42.650Z,85.59
2018-02-15T03:50:48.843Z,85.84
2018-02-15T03:51:55.037Z,85.66
2018-02-15T03:53:01.194Z,85.49
2018-02-15T03:54:07.394Z,85.22
2018-02-15T03:55:13.604Z,85.15
2018-02-15T03:56:19.838Z,84.79
2018-02-15T03:57:26.002Z,84.91
2018-02-15T03:58:32.188Z,84.89
2018-02-15T03:59:38.464Z,84.60
2018-02-15T04:00:44.682Z,84.63
2018-02-15T04:01:50.916Z,84.37
2018-02-15T04:02:57.162Z,84.24
2018-02-15T04:04:03.325Z,84.74
2018-02-15T04:05:09.601Z,84.42
2018-02-15T04:06:19.862Z,84.52
2018-02-15T04:07:26.077Z,84.40
2018-02-15T04:08:36.877Z,84.21
2018-02-15T04:09:43.144Z,84.04
2018-02-15T04:10:49.352Z,83.91
2018-02-15T04:11:55.572Z,83.89
2018-02-15T04:13:01.726Z,83.89
2018-02-15T04:14:07.873Z,83.97
2018-02-15T04:15:13.574Z,84.02
2018-02-15T04:16:19.798Z,83.95
2018-02-15T04:17:26.055Z,83.62
2018-02-15T04:18:32.295Z,83.55
2018-02-15T04:19:38.240Z,83.57
2018-02-15T04:20:44.432Z,83.54
2018-02-15T04:21:50.605Z,83.75
2018-02-15T04:22:57.024Z,83.80
2018-02-15T04:24:03.292Z,83.84
2018-02-15T04:25:09.489Z,83.69
2018-02-15T04:26:15.718Z,83.62
2018-02-15T04:27:21.970Z,83.79
2018-02-15T04:28:28.425Z,83.65
2018-02-15T04:29:34.691Z,83.64
2018-02-15T04:30:40.929Z,83.77
2018-02-15T04:31:47.168Z,83.75
2018-02-15T04:32:53.546Z,83.63
2018-02-15T04:33:59.816Z,83.58
2018-02-15T04:35:05.988Z,83.55
2018-02-15T04:36:12.131Z,83.55
2018-02-15T04:37:18.279Z,83.39
2018-02-15T04:38:24.440Z,83.68
2018-02-15T04:39:30.700Z,83.54
2018-02-15T04:40:39.899Z,83.38
2018-02-15T04:41:46.344Z,83.63
2018-02-15T04:42:52.581Z,83.58
2018-02-15T04:43:59.360Z,83.75
2018-02-15T04:45:05.633Z,83.71
2018-02-15T04:46:12.057Z,83.75
2018-02-15T04:47:18.428Z,83.77
2018-02-15T04:48:26.218Z,83.55
2018-02-15T04:49:32.475Z,83.55
2018-02-15T04:50:39.834Z,83.46
2018-02-15T04:51:47.259Z,83.65
2018-02-15T04:52:55.036Z,83.65
2018-02-15T04:54:01.846Z,83.68
2018-02-15T04:55:09.370Z,83.60
2018-02-15T04:56:16.814Z,83.58
2018-02-15T04:57:23.935Z,83.82
2018-02-15T04:58:31.734Z,83.94
2018-02-15T04:59:40.987Z,83.84
2018-02-15T05:00:51.827Z,83.94
2018-02-15T05:02:00.930Z,84.05
2018-02-15T05:03:09.788Z,84.17
2018-02-15T05:04:17.077Z,84.09
2018-02-15T05:05:24.218Z,84.06
2018-02-15T05:06:32.877Z,84.18
2018-02-15T05:07:40.193Z,84.13
2018-02-15T05:08:49.117Z,84.22
2018-02-15T05:09:56.978Z,84.33
2018-02-15T05:11:06.503Z,84.40
2018-02-15T05:12:14.339Z,84.35
2018-02-15T05:13:22.083Z,84.09
2018-02-15T05:14:31.206Z,83.98
2018-02-15T05:15:38.002Z,83.85
2018-02-15T05:16:44.256Z,83.85
2018-02-15T05:17:50.459Z,83.58
2018-02-15T05:18:56.690Z,83.62
2018-02-15T05:20:02.980Z,83.33
2018-02-15T05:21:08.946Z,83.30
2018-02-15T05:22:15.182Z,83.14
2018-02-15T05:23:21.356Z,83.21
2018-02-15T05:24:27.649Z,83.11
2018-02-15T05:25:33.915Z,83.07
2018-02-15T05:26:40.168Z,83.05
2018-02-15T05:27:46.437Z,83.02
2018-02-15T05:28:52.382Z,83.10
2018-02-15T05:29:58.557Z,83.02
2018-02-15T05:31:04.735Z,83.01
2018-02-15T05:32:10.962Z,82.87
2018-02-15T05:33:17.229Z,83.02
2018-02-15T05:34:23.417Z,83.06
2018-02-15T05:35:29.544Z,83.19
2018-02-15T05:36:35.687Z,83.01
2018-02-15T05:37:41.928Z,82.62
2018-02-15T05:38:48.140Z,82.62
2018-02-15T05:39:54.309Z,82.68
2018-02-15T05:41:00.537Z,82.79
2018-02-15T05:42:06.855Z,82.81
2018-02-15T05:43:13.072Z,82.80
2018-02-15T05:44:19.344Z,82.81
2018-02-15T05:45:25.230Z,82.97
2018-02-15T05:46:31.383Z,82.80
2018-02-15T05:47:37.349Z,82.32
2018-02-15T05:48:43.618Z,82.24
2018-02-15T05:49:49.835Z,82.34
2018-02-15T05:50:56.020Z,82.34
2018-02-15T05:52:02.398Z,82.31
2018-02-15T05:53:08.649Z,82.14
2018-02-15T05:54:14.876Z,82.29
2018-02-15T05:55:21.090Z,82.53
2018-02-15T05:56:27.387Z,82.45
2018-02-15T05:57:39.704Z,82.46
2018-02-15T05:58:45.912Z,82.30
2018-02-15T05:59:52.246Z,82.31
2018-02-15T06:00:58.419Z,82.31
2018-02-15T06:02:04.650Z,82.14
2018-02-15T06:03:13.322Z,82.18
2018-02-15T06:04:19.532Z,82.32
2018-02-15T06:05:25.667Z,82.18
2018-02-15T06:06:31.842Z,82.19
2018-02-15T06:07:37.998Z,82.21
2018-02-15T06:08:44.287Z,82.10
2018-02-15T06:09:50.491Z,82.25
2018-02-15T06:10:56.733Z,82.26
2018-02-15T06:12:02.941Z,82.28
2018-02-15T06:13:09.193Z,82.34
2018-02-15T06:14:14.991Z,82.34
2018-02-15T06:15:21.310Z,82.29
2018-02-15T06:16:27.173Z,82.28
2018-02-15T06:17:33.356Z,82.48
2018-02-15T06:18:39.585Z,82.31
2018-02-15T06:19:45.784Z,82.27
2018-02-15T06:20:52.004Z,82.31
2018-02-15T06:21:58.220Z,82.18
2018-02-15T06:23:04.522Z,82.20
2018-02-15T06:24:10.654Z,82.39
2018-02-15T06:25:16.821Z,82.22
2018-02-15T06:26:23.043Z,82.13
2018-02-15T06:27:29.246Z,82.26
2018-02-15T06:28:35.414Z,82.37
2018-02-15T06:29:41.680Z,82.36
2018-02-15T06:30:57.464Z,82.45
2018-02-15T06:32:03.663Z,82.55
2018-02-15T06:33:09.857Z,82.46
2018-02-15T06:34:16.035Z,82.41
2018-02-15T06:35:22.194Z,82.60
2018-02-15T06:36:28.376Z,82.54
2018-02-15T06:37:34.531Z,82.54
2018-02-15T06:38:40.939Z,82.53
2018-02-15T06:39:47.093Z,82.57
2018-02-15T06:40:53.269Z,82.47
2018-02-15T06:41:59.445Z,82.59
2018-02-15T06:43:05.652Z,82.54
2018-02-15T06:44:11.857Z,82.47
2018-02-15T06:45:18.076Z,82.25
2018-02-15T06:46:24.232Z,82.21
2018-02-15T06:47:30.461Z,82.22
2018-02-15T06:48:36.624Z,82.30
2018-02-15T06:49:42.884Z,82.23
2018-02-15T06:50:49.329Z,82.04
2018-02-15T06:52:01.333Z,81.94
2018-02-15T06:53:07.551Z,81.90
2018-02-15T06:54:13.717Z,81.77
2018-02-15T06:55:19.855Z,81.90
2018-02-15T06:56:31.072Z,81.86
2018-02-15T06:57:38.189Z,82.42
2018-02-15T06:58:49.808Z,82.71
2018-02-15T06:59:57.172Z,82.81
2018-02-15T07:01:04.749Z,82.87
2018-02-15T07:02:16.220Z,82.96
2018-02-15T07:03:27.845Z,82.98
2018-02-15T07:04:35.085Z,82.91
2018-02-15T07:05:43.356Z,82.97
2018-02-15T07:06:51.093Z,83.01
2018-02-15T07:07:58.216Z,83.16
2018-02-15T07:09:06.001Z,83.19
2018-02-15T07:10:13.819Z,83.02
2018-02-15T07:11:22.946Z,83.11
2018-02-15T07:12:31.543Z,83.28
2018-02-15T07:13:39.677Z,82.98
2018-02-15T07:14:46.869Z,82.94
2018-02-15T07:15:54.090Z,83.07
2018-02-15T07:17:03.458Z,82.87
2018-02-15T07:18:12.004Z,82.86
2018-02-15T07:19:20.841Z,83.02
2018-02-15T07:20:28.866Z,82.95
2018-02-15T07:21:36.157Z,82.81
2018-02-15T07:22:47.169Z,82.77
2018-02-15T07:23:56.695Z,82.76
2018-02-15T07:25:03.737Z,82.73
2018-02-15T07:26:11.352Z,82.63
2018-02-15T07:27:19.091Z,82.60
2018-02-15T07:28:26.790Z,82.51
2018-02-15T07:29:34.035Z,82.66
2018-02-15T07:30:42.440Z,82.71
2018-02-15T07:31:51.314Z,82.80
2018-02-15T07:32:59.561Z,82.95
2018-02-15T07:34:08.752Z,82.97
2018-02-15T07:35:15.984Z,82.93
2018-02-15T07:36:24.015Z,83.16
2018-02-15T07:37:32.398Z,83.09
2018-02-15T07:38:39.498Z,83.10
2018-02-15T07:39:46.541Z,83.10
2018-02-15T07:40:55.302Z,82.99
2018-02-15T07:42:02.546Z,83.36
2018-02-15T07:43:09.915Z,83.43
2018-02-15T07:44:17.380Z,83.30
2018-02-15T07:45:24.485Z,83.31
2018-02-15T07:46:31.258Z,83.33
2018-02-15T07:47:37.256Z,83.27
2018-02-15T07:48:43.273Z,83.22
2018-02-15T07:49:49.328Z,83.09
2018-02-15T07:50:55.312Z,82.86
2018-02-15T07:52:01.396Z,82.57
2018-02-15T07:53:10.699Z,82.36
2018-02-15T07:54:16.691Z,82.24
2018-02-15T07:55:22.681Z,81.98
2018-02-15T07:56:28.620Z,81.38
2018-02-15T07:57:34.557Z,81.58
2018-02-15T07:58:40.579Z,81.05
2018-02-15T07:59:46.692Z,80.96
2018-02-15T08:00:52.907Z,80.67
2018-02-15T08:01:59.157Z,80.48
2018-02-15T08:03:05.334Z,80.31
2018-02-15T08:04:11.528Z,79.64
2018-02-15T08:05:17.718Z,79.19
2018-02-15T08:06:26.741Z,78.73
2018-02-15T08:07:32.924Z,78.73
2018-02-15T08:08:39.147Z,78.84
2018-02-15T08:09:45.349Z,78.69
2018-02-15T08:10:51.523Z,78.03
2018-02-15T08:11:57.724Z,78.65
2018-02-15T08:13:03.892Z,78.18
2018-02-15T08:14:10.118Z,78.10
2018-02-15T08:15:16.335Z,77.77
2018-02-15T08:16:22.510Z,78.20
2018-02-15T08:17:28.672Z,77.59
2018-02-15T08:18:34.857Z,77.78
2018-02-15T08:19:40.870Z,77.39
2018-02-15T08:20:47.099Z,78.00
2018-02-15T08:21:53.337Z,77.50
2018-02-15T08:22:59.523Z,77.27
2018-02-15T08:24:05.689Z,77.41
2018-02-15T08:25:11.602Z,77.46
2018-02-15T08:26:17.756Z,77.68
2018-02-15T08:27:23.929Z,77.70
2018-02-15T08:28:30.167Z,78.00
2018-02-15T08:29:36.348Z,77.23
2018-02-15T08:30:47.560Z,77.16
2018-02-15T08:31:53.756Z,77.22
2018-02-15T08:32:59.950Z,76.94
2018-02-15T08:34:06.138Z,76.72
2018-02-15T08:35:12.276Z,76.58
2018-02-15T08:36:18.467Z,76.58
2018-02-15T08:37:24.624Z,76.79
2018-02-15T08:38:30.802Z,76.86
2018-02-15T08:39:36.990Z,76.69
2018-02-15T08:40:43.163Z,76.68
2018-02-15T08:41:49.383Z,76.80
2018-02-15T08:42:55.574Z,76.41
2018-02-15T08:44:01.761Z,76.62
2018-02-15T08:45:07.919Z,76.54
2018-02-15T08:46:14.221Z,76.22
2018-02-15T08:47:20.387Z,76.35
2018-02-15T08:48:26.638Z,76.08
2018-02-15T08:49:32.771Z,76.07
2018-02-15T08:50:38.995Z,76.67
2018-02-15T08:51:45.181Z,76.19
2018-02-15T08:52:51.333Z,76.04
2018-02-15T08:53:57.539Z,76.29
2018-02-15T08:55:03.732Z,76.03
2018-02-15T08:56:09.938Z,76.10
2018-02-15T08:57:16.074Z,76.08
2018-02-15T08:58:22.263Z,76.04
2018-02-15T08:59:28.415Z,76.04
2018-02-15T09:00:34.649Z,75.82
2018-02-15T09:01:40.855Z,75.44
2018-02-15T09:02:46.829Z,75.51
2018-02-15T09:03:53.423Z,75.44
2018-02-15T09:04:59.620Z,75.43
2018-02-15T09:06:05.778Z,75.59
2018-02-15T09:07:11.883Z,75.38
2018-02-15T09:08:18.024Z,75.42
2018-02-15T09:09:23.939Z,75.83
2018-02-15T09:10:30.672Z,75.02
2018-02-15T09:11:36.820Z,74.74
2018-02-15T09:12:43.081Z,74.92
2018-02-15T09:13:49.259Z,75.04
2018-02-15T09:14:55.395Z,75.02
2018-02-15T09:16:01.589Z,74.89
2018-02-15T09:17:07.750Z,74.75
2018-02-15T09:18:13.928Z,74.92
2018-02-15T09:19:20.072Z,74.76
2018-02-15T09:20:31.471Z,74.77
2018-02-15T09:21:37.640Z,74.62
2018-02-15T09:22:43.851Z,74.30
2018-02-15T09:23:50.004Z,74.25
2018-02-15T09:24:56.181Z,74.48
2018-02-15T09:26:02.379Z,74.20
2018-02-15T09:27:08.621Z,74.25
2018-02-15T09:28:17.762Z,74.14
2018-02-15T09:29:23.958Z,74.17
2018-02-15T09:30:30.144Z,73.95
2018-02-15T09:31:36.294Z,74.13
2018-02-15T09:32:42.463Z,73.90
2018-02-15T09:33:48.650Z,73.98
2018-02-15T09:34:54.918Z,74.11
2018-02-15T09:36:01.132Z,73.54
2018-02-15T09:37:07.022Z,73.52
2018-02-15T09:38:13.172Z,73.49
2018-02-15T09:39:19.448Z,73.89
2018-02-15T09:40:25.589Z,73.86
2018-02-15T09:41:40.181Z,73.93
2018-02-15T09:42:46.735Z,74.04
2018-02-15T09:43:52.934Z,74.06
2018-02-15T09:44:59.138Z,74.05
2018-02-15T09:46:05.366Z,73.96
2018-02-15T09:47:11.492Z,73.49
2018-02-15T09:48:17.395Z,73.61
2018-02-15T09:49:23.317Z,73.32
2018-02-15T09:50:31.500Z,73.07
2018-02-15T09:51:37.645Z,73.20
2018-02-15T09:52:43.772Z,72.96
2018-02-15T09:53:49.662Z,72.83
2018-02-15T09:54:55.781Z,72.82
2018-02-15T09:56:02.014Z,72.85
2018-02-15T09:57:08.946Z,73.00
2018-02-15T09:58:15.116Z,72.68
2018-02-15T09:59:21.299Z,72.73
2018-02-15T10:00:27.454Z,72.60
2018-02-15T10:01:33.610Z,72.46
2018-02-15T10:02:39.739Z,72.42
2018-02-15T10:03:45.978Z,72.49
2018-02-15T10:04:52.141Z,72.28
2018-02-15T10:05:58.326Z,72.19
2018-02-15T10:07:04.466Z,72.27
2018-02-15T10:08:10.691Z,72.33
2018-02-15T10:09:16.832Z,71.83
2018-02-15T10:10:23.038Z,71.05
2018-02-15T10:11:28.966Z,70.96
2018-02-15T10:12:35.188Z,70.62
2018-02-15T10:13:41.605Z,70.52
2018-02-15T10:14:47.832Z,70.56
2018-02-15T10:15:53.774Z,70.32
2018-02-15T10:16:59.761Z,70.24
2018-02-15T10:18:06.057Z,69.88
2018-02-15T10:19:12.214Z,69.95
2018-02-15T10:20:18.763Z,69.67
2018-02-15T10:21:24.960Z,69.47
2018-02-15T10:22:31.108Z,69.18
2018-02-15T10:23:37.291Z,69.81
2018-02-15T10:24:43.460Z,69.93
2018-02-15T10:25:49.643Z,69.80
2018-02-15T10:26:55.797Z,69.94
2018-02-15T10:28:01.977Z,69.95
2018-02-15T10:29:08.157Z,70.29
2018-02-15T10:30:14.291Z,70.44
2018-02-15T10:31:20.881Z,70.40
2018-02-15T10:32:26.833Z,70.53
2018-02-15T10:33:32.995Z,70.63
2018-02-15T10:34:39.116Z,70.92
2018-02-15T10:35:45.247Z,70.80
2018-02-15T10:36:51.435Z,71.01
2018-02-15T10:37:57.591Z,71.01
2018-02-15T10:39:03.228Z,70.98
2018-02-15T10:40:09.075Z,70.92
2018-02-15T10:41:15.255Z,70.82
2018-02-15T10:42:21.439Z,70.59
2018-02-15T10:43:27.632Z,70.80
2018-02-15T10:44:33.808Z,70.80
2018-02-15T10:45:39.911Z,70.89
2018-02-15T10:46:46.107Z,70.71
2018-02-15T10:47:53.136Z,70.70
2018-02-15T10:48:59.500Z,71.03
2018-02-15T10:50:05.660Z,71.12
2018-02-15T10:51:11.860Z,71.06
2018-02-15T10:52:18.101Z,70.68
2018-02-15T10:53:24.276Z,70.51
2018-02-15T10:54:30.452Z,70.59
2018-02-15T10:55:36.656Z,70.75
2018-02-15T10:56:42.820Z,70.63
2018-02-15T10:57:48.929Z,70.13
2018-02-15T10:58:54.690Z,70.12
2018-02-15T11:00:00.712Z,70.16
2018-02-15T11:01:12.039Z,70.08
2018-02-15T11:02:23.124Z,70.40
2018-02-15T11:03:30.063Z,70.11
2018-02-15T11:04:36.100Z,70.05
2018-02-15T11:05:42.304Z,69.99
2018-02-15T11:06:48.556Z,69.76
2018-02-15T11:07:54.751Z,69.57
2018-02-15T11:09:01.001Z,69.61
2018-02-15T11:10:07.220Z,69.36
2018-02-15T11:11:13.631Z,69.66
2018-02-15T11:12:19.891Z,69.53
2018-02-15T11:13:26.278Z,69.71
2018-02-15T11:14:32.487Z,69.37
2018-02-15T11:15:39.317Z,69.15
2018-02-15T11:16:45.985Z,69.23
2018-02-15T11:17:52.404Z,69.25
2018-02-15T11:18:59.884Z,69.21
2018-02-15T11:20:06.366Z,68.99
2018-02-15T11:21:12.918Z,68.82
2018-02-15T11:22:21.581Z,68.94
2018-02-15T11:23:29.286Z,68.91
2018-02-15T11:24:37.823Z,68.82
2018-02-15T11:25:45.699Z,68.95
2018-02-15T11:26:52.868Z,68.58
2018-02-15T11:28:00.450Z,68.81
2018-02-15T11:29:08.515Z,68.77
2018-02-15T11:30:15.861Z,68.32
2018-02-15T11:31:23.434Z,68.18
2018-02-15T11:32:31.712Z,67.78
2018-02-15T11:33:38.572Z,67.86
2018-02-15T11:34:45.471Z,67.69
2018-02-15T11:35:52.387Z,67.73
2018-02-15T11:37:02.244Z,67.58
2018-02-15T11:38:09.654Z,67.68
2018-02-15T11:39:17.449Z,67.43
2018-02-15T11:40:24.125Z,67.47
2018-02-15T11:41:30.803Z,67.61
2018-02-15T11:42:38.779Z,67.50
2018-02-15T11:43:46.672Z,67.73
2018-02-15T11:44:53.726Z,67.68
2018-02-15T11:46:01.000Z,67.30
2018-02-15T11:47:08.127Z,67.00
2018-02-15T11:48:16.096Z,66.99
2018-02-15T11:49:23.870Z,67.03
2018-02-15T11:50:31.426Z,67.42
2018-02-15T11:51:40.287Z,66.76
2018-02-15T11:52:47.301Z,66.26
2018-02-15T11:53:55.278Z,66.18
2018-02-15T11:55:02.298Z,66.24
2018-02-15T11:56:09.879Z,66.09
2018-02-15T11:57:17.772Z,65.94
2018-02-15T11:58:25.183Z,66.19
2018-02-15T11:59:32.813Z,65.75
2018-02-15T12:00:40.406Z,66.14
2018-02-15T12:01:47.938Z,66.03
2018-02-15T12:02:55.400Z,66.06
2018-02-15T12:04:02.023Z,66.12
2018-02-15T12:05:09.612Z,66.24
2018-02-15T12:06:17.418Z,66.23
2018-02-15T12:07:25.783Z,66.36
2018-02-15T12:08:34.071Z,65.99
2018-02-15T12:09:42.447Z,65.95
2018-02-15T12:10:51.358Z,66.16
2018-02-15T12:11:58.348Z,65.72
2018-02-15T12:13:06.701Z,65.72
2018-02-15T12:14:25.076Z,65.97
2018-02-15T12:15:33.379Z,65.95
2018-02-15T12:16:41.074Z,65.60
2018-02-15T12:18:54.831Z,65.67
2018-02-15T12:20:01.625Z,65.75
2018-02-15T12:21:09.009Z,64.74
2018-02-15T12:22:17.499Z,64.82
2018-02-15T12:23:29.547Z,64.58
2018-02-15T12:24:37.803Z,64.43
2018-02-15T12:25:45.114Z,64.75
2018-02-15T12:26:52.834Z,64.81
2018-02-15T12:28:02.013Z,64.77
2018-02-15T12:29:09.862Z,64.89
2018-02-15T12:30:21.218Z,64.68
2018-02-15T12:31:34.774Z,63.96
2018-02-15T12:32:44.680Z,63.82
2018-02-15T12:33:53.503Z,64.18
2018-02-15T12:35:01.667Z,64.06
2018-02-15T12:36:09.627Z,63.88
2018-02-15T12:37:16.279Z,63.95
2018-02-15T12:38:23.432Z,63.40
2018-02-15T12:39:31.190Z,63.39
2018-02-15T12:40:39.199Z,63.26
2018-02-15T12:41:47.089Z,63.29
2018-02-15T12:42:55.198Z,62.75
2018-02-15T12:44:02.189Z,63.06
2018-02-15T12:45:10.163Z,62.78
2018-02-15T12:46:18.515Z,62.77
2018-02-15T12:47:26.354Z,62.88
2018-02-15T12:48:34.029Z,62.56
2018-02-15T12:49:40.820Z,62.47
2018-02-15T12:50:47.986Z,62.14
2018-02-15T12:51:57.106Z,61.93
2018-02-15T12:53:05.092Z,61.95
2018-02-15T12:54:14.462Z,60.99
2018-02-15T12:55:21.741Z,61.10
2018-02-15T12:56:29.415Z,60.62
2018-02-15T12:57:37.607Z,60.50
2018-02-15T12:58:45.281Z,60.32
2018-02-15T12:59:52.839Z,59.99
2018-02-15T13:01:00.263Z,59.15
2018-02-15T13:02:07.324Z,58.16
2018-02-15T13:03:15.392Z,58.05
2018-02-15T13:04:22.940Z,58.06
2018-02-15T13:05:30.613Z,58.35
2018-02-15T13:06:37.787Z,57.98
2018-02-15T13:07:46.176Z,57.27
2018-02-15T13:08:55.054Z,56.83
2018-02-15T13:10:02.664Z,57.11
2018-02-15T13:11:10.124Z,57.15
2018-02-15T13:12:30.064Z,57.10
2018-02-15T13:13:36.913Z,57.46
2018-02-15T13:14:44.805Z,57.68
2018-02-15T13:16:12.210Z,57.50
2018-02-15T13:17:19.172Z,57.48
2018-02-15T13:18:26.306Z,57.46
2018-02-15T13:19:49.815Z,57.66
2018-02-15T13:20:57.644Z,57.53
2018-02-15T13:23:47.828Z,57.77
2018-02-15T13:24:55.063Z,57.66
2018-02-15T13:26:04.005Z,58.07
2018-02-15T13:27:11.913Z,58.53
2018-02-15T13:28:30.224Z,58.18
2018-02-15T13:29:38.406Z,57.65
2018-02-15T13:30:45.612Z,57.99
2018-02-15T13:31:52.938Z,57.94
2018-02-15T13:33:01.443Z,58.22
2018-02-15T13:34:10.089Z,58.00
2018-02-15T13:35:18.746Z,57.69
2018-02-15T13:36:25.532Z,57.90
2018-02-15T13:37:32.998Z,57.98
2018-02-15T13:38:41.534Z,58.13
2018-02-15T13:39:48.783Z,58.22
2018-02-15T13:40:56.013Z,58.27
2018-02-15T13:42:03.716Z,58.89
2018-02-15T13:43:10.904Z,59.26
2018-02-15T13:44:18.229Z,59.45
2018-02-15T13:45:25.179Z,59.56
2018-02-15T13:46:32.066Z,59.05
2018-02-15T13:47:40.462Z,59.09
2018-02-15T13:48:47.569Z,59.02
2018-02-15T13:49:55.504Z,59.40
2018-02-15T13:51:03.753Z,59.69
2018-02-15T13:52:11.626Z,59.70
2018-02-15T13:53:18.453Z,59.82
2018-02-15T13:54:30.208Z,59.71
2018-02-15T13:55:38.474Z,59.53
2018-02-15T13:56:46.352Z,59.68
2018-02-15T13:57:53.182Z,59.47
2018-02-15T13:59:00.114Z,59.46
2018-02-15T14:00:06.966Z,59.39
2018-02-15T14:01:14.300Z,59.47
2018-02-15T14:02:21.417Z,59.96
2018-02-15T14:03:28.495Z,60.12
2018-02-15T14:04:36.029Z,59.87
2018-02-15T14:05:44.436Z,59.73
2018-02-15T14:06:51.577Z,59.77
2018-02-15T14:08:01.023Z,60.00
2018-02-15T14:09:08.715Z,59.88
2018-02-15T14:10:19.484Z,59.53
2018-02-15T14:11:27.766Z,59.37
2018-02-15T14:12:35.549Z,59.36
2018-02-15T14:13:43.969Z,59.55
2018-02-15T14:14:51.607Z,59.49
2018-02-15T14:15:58.843Z,59.61
2018-02-15T14:17:07.428Z,59.64
2018-02-15T14:18:14.394Z,59.88
2018-02-15T14:19:21.585Z,59.87
2018-02-15T14:20:28.874Z,59.80
2018-02-15T14:21:36.574Z,60.02
2018-02-15T14:22:44.736Z,59.73
2018-02-15T14:23:51.814Z,59.40
2018-02-15T14:24:58.869Z,59.76